Terminal Aerodrome Forecast
Issued by NWS Wichita, KS

Home | Current Version | Previous Version | Text Only | Print | Product List | Glossary On
Versions: 1 2 3 4 5 6 7 8 9 10 11 12 13 14 15
000
FTUS43 KICT 210500
TAFICT
TAF
KICT 210522Z 2106/2206 18014G20KT P6SM SCT250
     FM211500 19022G30KT P6SM FEW060 SCT250
     FM220100 17015G22KT P6SM SCT130=

USA.gov is the U.S. government's official web portal to all federal, state and local government web resources and services.